createdAt,value
2018-02-20T00:00:58.958Z,-0.18
2018-02-20T00:03:27.235Z,-0.08
2018-02-20T00:05:55.538Z,-0.08
2018-02-20T00:08:23.783Z,-0.15
2018-02-20T00:10:52.073Z,-0.20
2018-02-20T00:13:20.341Z,-0.09
2018-02-20T00:15:48.628Z,-0.15
2018-02-20T00:18:16.897Z,-0.13
2018-02-20T00:20:45.251Z,-0.09
2018-02-20T00:23:13.671Z,-0.20
2018-02-20T00:25:42.060Z,-0.30
2018-02-20T00:28:10.336Z,-0.41
2018-02-20T00:30:38.612Z,-0.37
2018-02-20T00:33:07.640Z,-0.34
2018-02-20T00:35:35.925Z,-0.49
2018-02-20T00:50:01.383Z,-0.31
2018-02-20T00:52:29.644Z,-0.27
2018-02-20T00:54:58.664Z,-0.28
2018-02-20T00:57:28.426Z,-0.33
2018-02-20T00:59:56.663Z,-0.34
2018-02-20T01:02:24.912Z,-0.31
2018-02-20T01:04:53.180Z,-0.39
2018-02-20T01:07:21.495Z,-0.33
2018-02-20T01:09:49.754Z,-0.25
2018-02-20T01:12:18.780Z,-0.32
2018-02-20T01:14:47.086Z,-0.33
2018-02-20T01:17:15.425Z,-0.32
2018-02-20T01:19:44.533Z,-0.32
2018-02-20T01:22:13.622Z,-0.40
2018-02-20T01:24:41.920Z,-0.36
2018-02-20T01:27:10.183Z,-0.25
2018-02-20T01:29:38.435Z,-0.38
2018-02-20T01:32:06.711Z,-0.41
2018-02-20T01:34:34.994Z,-0.36
2018-02-20T01:37:03.387Z,-0.42
2018-02-20T01:39:32.408Z,-0.42
2018-02-20T01:42:00.707Z,-0.33
2018-02-20T01:44:28.972Z,-0.35
2018-02-20T01:46:57.248Z,-0.46
2018-02-20T01:49:26.280Z,-0.43
2018-02-20T01:51:55.320Z,-0.49
2018-02-20T01:54:23.591Z,-0.50
2018-02-20T01:56:51.859Z,-0.38
2018-02-20T01:59:20.115Z,-0.45
2018-02-20T02:01:48.396Z,-0.41
2018-02-20T02:04:16.828Z,-0.38
2018-02-20T02:06:45.113Z,-0.44
2018-02-20T02:09:13.446Z,-0.45
2018-02-20T02:11:41.759Z,-0.48
2018-02-20T02:14:10.867Z,-0.45
2018-02-20T02:16:39.175Z,-0.44
2018-02-20T02:19:08.228Z,-0.48
2018-02-20T02:21:36.502Z,-0.47
2018-02-20T02:24:04.759Z,-0.50
2018-02-20T02:26:33.796Z,-0.59
2018-02-20T02:29:02.069Z,-0.55
2018-02-20T02:31:30.379Z,-0.53
2018-02-20T02:33:58.665Z,-0.50
2018-02-20T02:36:26.929Z,-0.43
2018-02-20T02:38:55.980Z,-0.43
2018-02-20T02:41:24.247Z,-0.55
2018-02-20T02:43:52.533Z,-0.54
2018-02-20T02:46:20.799Z,-0.45
2018-02-20T02:48:49.860Z,-0.52
2018-02-20T02:51:18.136Z,-0.53
2018-02-20T02:53:46.417Z,-0.62
2018-02-20T02:56:14.682Z,-0.58
2018-02-20T02:58:43.766Z,-0.60
2018-02-20T03:01:12.121Z,-0.57
2018-02-20T03:03:40.430Z,-0.51
2018-02-20T03:06:09.488Z,-0.57
2018-02-20T03:08:37.760Z,-0.50
2018-02-20T03:11:06.788Z,-0.51
2018-02-20T03:13:35.064Z,-0.56
2018-02-20T03:16:03.337Z,-0.56
2018-02-20T03:18:31.620Z,-0.54
2018-02-20T03:21:00.687Z,-0.61
2018-02-20T03:23:28.973Z,-0.59
2018-02-20T03:25:57.242Z,-0.54
2018-02-20T03:28:25.520Z,-0.51
2018-02-20T03:30:55.128Z,-0.53
2018-02-20T03:33:24.173Z,-0.49
2018-02-20T03:35:52.432Z,-0.52
2018-02-20T03:38:21.468Z,-0.56
2018-02-20T03:40:49.720Z,-0.51
2018-02-20T03:43:18.765Z,-0.41
2018-02-20T03:45:47.035Z,-0.50
2018-02-20T03:48:15.327Z,-0.54
2018-02-20T03:50:43.702Z,-0.58
2018-02-20T03:53:12.775Z,-0.67
2018-02-20T03:55:41.373Z,-0.51
2018-02-20T03:58:09.644Z,-0.57
2018-02-20T04:00:37.910Z,-0.61
2018-02-20T04:03:06.190Z,-0.66
2018-02-20T04:05:34.435Z,-0.69
2018-02-20T04:08:02.716Z,-0.73
2018-02-20T04:10:30.989Z,-0.73
2018-02-20T04:12:59.330Z,-0.78
2018-02-20T04:15:27.599Z,-0.74
2018-02-20T04:17:55.874Z,-0.71
2018-02-20T04:20:24.147Z,-0.71
2018-02-20T04:22:52.436Z,-0.70
2018-02-20T04:25:20.705Z,-0.72
2018-02-20T04:27:48.985Z,-0.72
2018-02-20T04:30:17.252Z,-0.67
2018-02-20T04:32:46.304Z,-0.60
2018-02-20T04:35:14.610Z,-0.63
2018-02-20T04:37:42.890Z,-0.63
2018-02-20T04:40:11.210Z,-0.73
2018-02-20T04:42:39.462Z,-0.72
2018-02-20T04:45:07.738Z,-0.71
2018-02-20T04:47:36.008Z,-0.71
2018-02-20T04:50:04.298Z,-0.70
2018-02-20T04:52:33.317Z,-0.65
2018-02-20T04:55:01.629Z,-0.71
2018-02-20T04:57:29.911Z,-0.63
2018-02-20T04:59:58.210Z,-0.70
2018-02-20T05:02:26.472Z,-0.68
2018-02-20T05:04:54.732Z,-0.69
2018-02-20T05:07:23.762Z,-0.71
2018-02-20T05:09:52.056Z,-0.81
2018-02-20T05:12:20.324Z,-0.76
2018-02-20T05:14:49.361Z,-0.71
2018-02-20T05:17:17.616Z,-0.69
2018-02-20T05:19:46.688Z,-0.72
2018-02-20T05:22:15.752Z,-0.80
2018-02-20T05:24:44.081Z,-0.77
2018-02-20T05:27:12.379Z,-0.75
2018-02-20T05:29:40.916Z,-0.80
2018-02-20T05:32:09.939Z,-0.76
2018-02-20T05:34:38.215Z,-0.81
2018-02-20T05:37:06.482Z,-0.76
2018-02-20T05:39:34.756Z,-0.84
2018-02-20T05:42:03.796Z,-0.71
2018-02-20T05:44:32.835Z,-0.80
2018-02-20T05:47:01.122Z,-0.67
2018-02-20T05:49:29.412Z,-0.78
2018-02-20T05:51:57.683Z,-0.77
2018-02-20T05:54:27.303Z,-0.80
2018-02-20T05:56:55.574Z,-0.80
2018-02-20T05:59:24.630Z,-0.85
2018-02-20T06:01:52.887Z,-0.75
2018-02-20T06:04:21.155Z,-0.80
2018-02-20T06:06:50.772Z,-0.70
2018-02-20T06:09:19.826Z,-0.77
2018-02-20T06:11:48.073Z,-0.83
2018-02-20T06:14:17.128Z,-0.77
2018-02-20T06:16:45.421Z,-0.69
2018-02-20T06:19:14.551Z,-0.67
2018-02-20T06:21:42.975Z,-0.65
2018-02-20T06:24:11.350Z,-0.62
2018-02-20T06:26:39.608Z,-0.62
2018-02-20T06:29:07.887Z,-0.63
2018-02-20T06:31:36.146Z,-0.53
2018-02-20T06:34:04.423Z,-0.40
2018-02-20T06:36:33.465Z,-0.37
2018-02-20T06:39:01.778Z,-0.50
2018-02-20T06:41:30.076Z,-0.48
2018-02-20T06:43:58.368Z,-0.22
2018-02-20T06:46:26.640Z,-0.56
2018-02-20T06:48:54.908Z,-0.62
2018-02-20T06:51:23.281Z,-0.51
2018-02-20T06:53:51.787Z,-0.48
2018-02-20T06:56:20.504Z,-0.48
2018-02-20T06:58:49.048Z,-0.45
2018-02-20T07:01:17.467Z,-0.39
2018-02-20T07:03:46.743Z,-0.36
2018-02-20T07:06:17.229Z,-0.42
2018-02-20T07:08:46.009Z,-0.10
2018-02-20T07:11:15.400Z,-0.26
2018-02-20T07:13:43.954Z,0.62
2018-02-20T07:16:12.443Z,0.10
2018-02-20T07:18:40.919Z,-0.03
2018-02-20T07:21:09.239Z,-0.09
2018-02-20T07:23:37.612Z,-0.12
2018-02-20T07:26:05.978Z,-0.08
2018-02-20T07:28:35.024Z,-0.14
2018-02-20T07:31:03.377Z,-0.01
2018-02-20T07:33:32.886Z,-0.13
2018-02-20T07:36:01.955Z,-0.13
2018-02-20T07:38:30.305Z,-0.11
2018-02-20T07:40:58.739Z,-0.01
2018-02-20T07:43:27.041Z,0.05
2018-02-20T07:45:55.325Z,0.14
2018-02-20T07:48:23.595Z,-0.05
2018-02-20T07:50:51.952Z,0.07
2018-02-20T07:53:20.319Z,0.21
2018-02-20T07:55:48.674Z,0.14
2018-02-20T07:58:17.131Z,0.18
2018-02-20T08:00:45.465Z,0.20
2018-02-20T08:03:14.184Z,0.36
2018-02-20T08:05:42.915Z,0.26
2018-02-20T08:08:11.622Z,0.32
2018-02-20T08:10:39.946Z,0.31
2018-02-20T08:13:09.020Z,0.49
2018-02-20T08:15:37.755Z,0.36
2018-02-20T08:18:06.542Z,0.43
2018-02-20T08:20:34.851Z,0.50
2018-02-20T08:23:03.125Z,0.61
2018-02-20T08:25:31.952Z,0.69
2018-02-20T08:28:00.802Z,0.64
2018-02-20T08:30:29.231Z,0.77
2018-02-20T08:32:58.908Z,0.64
2018-02-20T08:35:27.865Z,0.56
2018-02-20T08:37:56.517Z,0.73
2018-02-20T08:40:25.379Z,0.68
2018-02-20T08:42:54.228Z,0.87
2018-02-20T08:45:24.062Z,0.79
2018-02-20T08:47:52.621Z,1.07
2018-02-20T08:50:21.216Z,0.98
2018-02-20T08:52:50.102Z,0.86
2018-02-20T08:55:18.894Z,0.92
2018-02-20T08:57:47.832Z,0.82
2018-02-20T09:00:17.017Z,0.89
2018-02-20T09:02:46.418Z,1.14
2018-02-20T09:05:16.199Z,1.34
2018-02-20T09:07:44.743Z,1.20
2018-02-20T09:10:13.623Z,1.55
2018-02-20T09:12:42.777Z,1.56
2018-02-20T09:15:12.075Z,1.71
2018-02-20T09:17:41.226Z,1.34
2018-02-20T09:20:10.962Z,1.66
2018-02-20T09:22:39.613Z,1.24
2018-02-20T09:25:08.241Z,1.30
2018-02-20T09:27:37.798Z,1.44
2018-02-20T09:30:06.445Z,1.44
2018-02-20T09:32:35.939Z,1.61
2018-02-20T09:35:04.355Z,1.62
2018-02-20T09:37:32.922Z,1.19
2018-02-20T09:40:01.745Z,1.27
2018-02-20T09:42:30.361Z,1.46
2018-02-20T09:44:58.808Z,1.39
2018-02-20T09:47:27.159Z,1.54
2018-02-20T09:49:55.859Z,1.53
2018-02-20T09:52:24.607Z,1.59
2018-02-20T09:54:53.633Z,1.59
2018-02-20T09:57:22.153Z,1.73
2018-02-20T09:59:51.321Z,2.03
2018-02-20T10:02:19.943Z,1.81
2018-02-20T10:04:48.838Z,1.89
2018-02-20T10:07:17.351Z,1.75
2018-02-20T10:09:46.523Z,1.50
2018-02-20T10:12:15.417Z,1.87
2018-02-20T10:14:44.465Z,1.60
2018-02-20T10:17:13.088Z,1.95
2018-02-20T10:19:41.572Z,1.72
2018-02-20T10:22:11.776Z,1.64
2018-02-20T10:24:41.299Z,1.71
2018-02-20T10:27:10.071Z,1.32
2018-02-20T10:29:38.679Z,1.74
2018-02-20T10:32:07.273Z,2.06
2018-02-20T10:34:36.084Z,2.34
2018-02-20T10:37:05.048Z,1.71
2018-02-20T10:39:33.807Z,1.62
2018-02-20T10:42:02.286Z,1.86
2018-02-20T10:44:31.390Z,1.87
2018-02-20T10:47:00.239Z,2.56
2018-02-20T10:49:28.713Z,2.33
2018-02-20T10:51:58.170Z,1.99
2018-02-20T10:54:26.823Z,1.88
2018-02-20T10:56:55.615Z,2.03
2018-02-20T10:59:23.860Z,2.62
2018-02-20T11:01:53.161Z,2.07
2018-02-20T11:04:21.976Z,1.98
2018-02-20T11:06:50.961Z,2.10
2018-02-20T11:09:21.043Z,2.79
2018-02-20T11:11:49.473Z,2.44
2018-02-20T11:14:18.927Z,2.01
2018-02-20T11:16:47.603Z,2.49
2018-02-20T11:19:16.448Z,2.02
2018-02-20T11:21:45.815Z,2.33
2018-02-20T11:24:14.653Z,2.27
2018-02-20T11:26:43.426Z,2.33
2018-02-20T11:29:12.118Z,2.50
2018-02-20T11:31:41.197Z,1.67
2018-02-20T11:34:10.782Z,1.96
2018-02-20T11:36:41.343Z,1.76
2018-02-20T11:39:09.752Z,2.68
2018-02-20T11:41:39.471Z,2.27
2018-02-20T11:44:08.215Z,2.51
2018-02-20T11:46:37.689Z,2.04
2018-02-20T11:49:06.521Z,1.92
2018-02-20T11:51:35.506Z,2.44
2018-02-20T11:54:04.962Z,2.39
2018-02-20T11:56:33.515Z,2.22
2018-02-20T11:59:02.090Z,2.16
2018-02-20T12:01:31.256Z,2.50
2018-02-20T12:04:01.541Z,2.42
2018-02-20T12:06:29.869Z,2.54
2018-02-20T12:08:59.090Z,2.32
2018-02-20T12:11:27.976Z,2.48
2018-02-20T12:13:57.282Z,2.45
2018-02-20T12:16:25.919Z,2.71
2018-02-20T12:18:55.106Z,2.23
2018-02-20T12:21:23.638Z,2.41
2018-02-20T12:23:52.445Z,2.24
2018-02-20T12:26:22.873Z,2.16
2018-02-20T12:28:51.505Z,1.96
2018-02-20T12:31:20.587Z,2.23
2018-02-20T12:33:49.394Z,2.51
2018-02-20T12:36:17.966Z,1.89
2018-02-20T12:38:46.715Z,1.83
2018-02-20T12:41:15.474Z,2.12
2018-02-20T12:43:44.528Z,1.98
2018-02-20T12:46:13.176Z,2.10
2018-02-20T12:48:41.910Z,1.60
2018-02-20T12:51:10.895Z,2.01
2018-02-20T12:53:39.538Z,1.88
2018-02-20T12:56:08.627Z,1.82
2018-02-20T12:58:37.313Z,1.44
2018-02-20T13:01:05.992Z,1.72
2018-02-20T13:03:35.487Z,2.03
2018-02-20T13:06:04.256Z,1.83
2018-02-20T13:08:33.714Z,1.85
2018-02-20T13:11:02.371Z,1.50
2018-02-20T13:13:31.006Z,1.88
2018-02-20T13:15:59.671Z,1.77
2018-02-20T13:18:29.077Z,1.77
2018-02-20T13:20:58.657Z,2.13
2018-02-20T13:23:27.306Z,2.16
2018-02-20T13:25:57.065Z,2.12
2018-02-20T13:28:25.659Z,1.96
2018-02-20T13:30:54.614Z,2.06
2018-02-20T13:33:23.069Z,2.19
2018-02-20T13:35:51.955Z,1.80
2018-02-20T13:38:20.434Z,1.85
2018-02-20T13:40:49.752Z,1.85
2018-02-20T13:43:19.633Z,2.35
2018-02-20T13:45:48.433Z,2.09
2018-02-20T13:48:18.968Z,1.94
2018-02-20T13:50:47.655Z,1.94
2018-02-20T13:53:16.864Z,1.79
2018-02-20T13:55:45.904Z,2.16
2018-02-20T13:58:14.368Z,2.28
2018-02-20T14:00:43.268Z,2.48
2018-02-20T14:03:12.666Z,2.33
2018-02-20T14:05:41.634Z,2.43
2018-02-20T14:08:11.070Z,2.19
2018-02-20T14:10:39.804Z,2.39
2018-02-20T14:13:08.603Z,1.96
2018-02-20T14:15:37.289Z,1.89
2018-02-20T14:18:06.680Z,2.07
2018-02-20T14:20:36.152Z,2.27
2018-02-20T14:23:04.847Z,2.06
2018-02-20T14:25:33.532Z,2.15
2018-02-20T14:28:02.286Z,2.41
2018-02-20T14:30:31.826Z,2.47
2018-02-20T14:33:00.795Z,2.20
2018-02-20T14:35:30.048Z,2.38
2018-02-20T14:37:59.165Z,1.99
2018-02-20T14:40:27.979Z,2.05
2018-02-20T14:42:57.231Z,1.72
2018-02-20T14:45:25.513Z,1.95
2018-02-20T14:47:53.952Z,1.93
2018-02-20T14:50:22.309Z,2.32
2018-02-20T14:52:50.842Z,2.40
2018-02-20T14:55:19.248Z,1.99
2018-02-20T14:57:47.748Z,2.09
2018-02-20T15:00:16.152Z,1.78
2018-02-20T15:02:44.534Z,1.92
2018-02-20T15:05:13.195Z,1.76
2018-02-20T15:07:42.647Z,1.81
2018-02-20T15:10:11.359Z,1.75
2018-02-20T15:12:39.924Z,1.69
2018-02-20T15:15:08.227Z,1.50
2018-02-20T15:17:37.150Z,1.50
2018-02-20T15:20:05.787Z,1.43
2018-02-20T15:22:35.105Z,1.40
2018-02-20T15:25:04.199Z,1.46
2018-02-20T15:27:33.208Z,1.33
2018-02-20T15:30:02.908Z,1.38
2018-02-20T15:32:31.286Z,1.27
2018-02-20T15:34:59.625Z,1.19
2018-02-20T15:37:28.726Z,1.18
2018-02-20T15:39:58.213Z,1.14
2018-02-20T15:42:26.521Z,0.94
2018-02-20T15:44:54.805Z,1.01
2018-02-20T15:47:24.078Z,1.09
2018-02-20T15:49:53.218Z,0.96
2018-02-20T15:52:21.512Z,1.05
2018-02-20T15:54:49.858Z,0.95
2018-02-20T15:57:18.399Z,1.07
2018-02-20T15:59:46.772Z,0.96
2018-02-20T16:02:15.316Z,0.79
2018-02-20T16:04:44.426Z,0.88
2018-02-20T16:07:13.702Z,0.78
2018-02-20T16:09:43.979Z,0.74
2018-02-20T16:12:12.724Z,0.75
2018-02-20T16:14:42.898Z,0.84
2018-02-20T16:17:12.178Z,0.74
2018-02-20T16:19:40.708Z,0.88
2018-02-20T16:22:09.586Z,0.83
2018-02-20T16:24:38.763Z,0.71
2018-02-20T16:27:07.313Z,0.81
2018-02-20T16:29:35.885Z,0.87
2018-02-20T16:32:04.731Z,0.67
2018-02-20T16:34:34.091Z,0.70
2018-02-20T16:37:02.528Z,0.71
2018-02-20T16:39:32.131Z,0.62
2018-02-20T16:42:00.529Z,0.65
2018-02-20T16:44:28.849Z,0.59
2018-02-20T16:46:57.904Z,0.49
2018-02-20T16:49:26.341Z,0.48
2018-02-20T16:51:55.457Z,0.45
2018-02-20T16:54:23.805Z,0.46
2018-02-20T16:56:52.366Z,0.55
2018-02-20T16:59:20.758Z,0.39
2018-02-20T17:01:49.237Z,0.43
2018-02-20T17:04:17.756Z,0.32
2018-02-20T17:06:46.446Z,0.29
2018-02-20T17:09:14.728Z,0.43
2018-02-20T17:11:44.044Z,0.23
2018-02-20T17:14:12.599Z,0.24
2018-02-20T17:16:41.384Z,0.20
2018-02-20T17:19:11.393Z,0.21
2018-02-20T17:21:40.086Z,0.19
2018-02-20T17:24:08.537Z,0.19
2018-02-20T17:26:37.849Z,0.11
2018-02-20T17:29:07.077Z,0.14
2018-02-20T17:31:35.411Z,0.10
2018-02-20T17:34:03.716Z,0.06
2018-02-20T17:36:32.154Z,0.11
2018-02-20T17:39:00.999Z,0.06
2018-02-20T17:41:29.851Z,0.07
2018-02-20T17:43:58.180Z,0.02
2018-02-20T17:46:26.473Z,0.00
2018-02-20T17:48:55.147Z,-0.13
2018-02-20T17:51:24.672Z,-0.17
2018-02-20T17:53:53.051Z,-0.19
2018-02-20T17:56:21.708Z,-0.24
2018-02-20T17:58:50.045Z,-0.30
2018-02-20T18:01:18.508Z,-0.35
2018-02-20T18:03:46.950Z,-0.45
2018-02-20T18:06:15.643Z,-0.52
2018-02-20T18:08:44.426Z,-0.49
2018-02-20T18:11:13.035Z,-0.52
2018-02-20T18:13:41.647Z,-0.51
2018-02-20T18:16:10.137Z,-0.62
2018-02-20T18:18:38.657Z,-0.63
2018-02-20T18:21:06.961Z,-0.70
2018-02-20T18:23:35.235Z,-0.78
2018-02-20T18:26:03.506Z,-0.72
2018-02-20T18:28:32.103Z,-0.64
2018-02-20T18:31:00.685Z,-0.58
2018-02-20T18:33:29.033Z,-0.57
2018-02-20T18:35:57.371Z,-0.63
2018-02-20T18:38:25.680Z,-0.67
2018-02-20T18:40:54.194Z,-0.65
2018-02-20T18:43:23.366Z,-0.69
2018-02-20T18:45:51.711Z,-0.66
2018-02-20T18:48:20.957Z,-0.66
2018-02-20T18:50:49.584Z,-0.60
2018-02-20T18:53:18.729Z,-0.60
2018-02-20T18:55:47.273Z,-0.62
2018-02-20T18:58:15.870Z,-0.56
2018-02-20T19:00:44.644Z,-0.57
2018-02-20T19:03:13.417Z,-0.57
2018-02-20T19:05:42.929Z,-0.58
2018-02-20T19:08:11.558Z,-0.65
2018-02-20T19:10:40.081Z,-0.68
2018-02-20T19:13:08.730Z,-0.57
2018-02-20T19:15:37.942Z,-0.67
2018-02-20T19:18:07.566Z,-0.86
2018-02-20T19:20:36.880Z,-0.79
2018-02-20T19:23:06.000Z,-0.84
2018-02-20T19:25:34.510Z,-0.79
2018-02-20T19:28:02.866Z,-0.81
2018-02-20T19:30:31.172Z,-0.74
2018-02-20T19:32:59.640Z,-0.75
2018-02-20T19:35:28.165Z,-0.76
2018-02-20T19:37:56.475Z,-0.73
2018-02-20T19:40:24.912Z,-0.68
2018-02-20T19:42:54.214Z,-0.63
2018-02-20T19:45:22.763Z,-0.50
2018-02-20T19:47:51.233Z,-0.54
2018-02-20T19:50:20.415Z,-0.60
2018-02-20T19:52:49.636Z,-0.66
2018-02-20T19:55:18.709Z,-0.61
2018-02-20T19:57:47.017Z,-0.49
2018-02-20T20:00:15.715Z,-0.51
2018-02-20T20:02:44.128Z,-0.47
2018-02-20T20:05:13.372Z,-0.47
2018-02-20T20:07:41.852Z,-0.51
2018-02-20T20:10:10.226Z,-0.50
2018-02-20T20:12:38.605Z,-0.48
2018-02-20T20:15:06.892Z,-0.53
2018-02-20T20:17:35.286Z,-0.51
2018-02-20T20:20:03.656Z,-0.60
2018-02-20T20:22:32.102Z,-0.65
2018-02-20T20:25:01.333Z,-0.60
2018-02-20T20:27:30.416Z,-0.63
2018-02-20T20:29:59.579Z,-0.69
2018-02-20T20:32:28.233Z,-0.65
2018-02-20T20:34:57.564Z,-0.59
2018-02-20T20:37:26.164Z,-0.51
2018-02-20T20:39:54.703Z,-0.45
2018-02-20T20:42:23.046Z,-0.47
2018-02-20T20:44:51.438Z,-0.45
2018-02-20T20:47:19.785Z,-0.54
2018-02-20T20:49:49.755Z,-0.52
2018-02-20T20:52:19.006Z,-0.53
2018-02-20T20:54:47.360Z,-0.57
2018-02-20T20:57:15.662Z,-0.55
2018-02-20T20:59:44.016Z,-0.60
2018-02-20T21:02:13.385Z,-0.55
2018-02-20T21:04:41.768Z,-0.49
2018-02-20T21:07:11.002Z,-0.55
2018-02-20T21:09:39.593Z,-0.59
2018-02-20T21:12:07.987Z,-0.58
2018-02-20T21:14:37.158Z,-0.64
2018-02-20T21:17:05.743Z,-0.51
2018-02-20T21:19:34.937Z,-0.68
2018-02-20T21:22:04.011Z,-0.65
2018-02-20T21:24:32.347Z,-0.66
2018-02-20T21:27:01.563Z,-0.71
2018-02-20T21:29:31.100Z,-0.62
2018-02-20T21:31:59.764Z,-0.67
2018-02-20T21:34:28.816Z,-0.70
2018-02-20T21:36:57.292Z,-0.70
2018-02-20T21:39:25.876Z,-0.84
2018-02-20T21:41:54.947Z,-0.89
2018-02-20T21:44:23.276Z,-0.86
2018-02-20T21:46:51.672Z,-0.90
2018-02-20T21:49:21.209Z,-0.97
2018-02-20T21:51:49.568Z,-0.97
2018-02-20T21:54:17.921Z,-1.01
2018-02-20T21:56:46.296Z,-1.04
2018-02-20T21:59:14.683Z,-1.05
2018-02-20T22:01:43.057Z,-0.97
2018-02-20T22:04:11.372Z,-1.04
2018-02-20T22:06:39.708Z,-0.97
2018-02-20T22:09:09.153Z,-0.97
2018-02-20T22:11:38.255Z,-0.94
2018-02-20T22:14:06.544Z,-0.90
2018-02-20T22:16:34.958Z,-0.88
2018-02-20T22:19:03.252Z,-0.89
2018-02-20T22:21:31.585Z,-0.84
2018-02-20T22:23:59.983Z,-0.85
2018-02-20T22:26:29.241Z,-0.78
2018-02-20T22:28:57.754Z,-0.76
2018-02-20T22:31:26.116Z,-0.76
2018-02-20T22:33:54.427Z,-0.87
2018-02-20T22:36:24.056Z,-0.81
2018-02-20T22:38:52.701Z,-0.87
2018-02-20T22:41:21.910Z,-0.78
2018-02-20T22:43:51.014Z,-0.80
2018-02-20T22:46:21.035Z,-0.89
2018-02-20T22:48:49.416Z,-0.87
2018-02-20T22:51:17.967Z,-0.89
2018-02-20T22:53:46.319Z,-0.82
2018-02-20T22:56:15.487Z,-0.84
2018-02-20T22:58:44.342Z,-0.87
2018-02-20T23:01:13.555Z,-0.76
2018-02-20T23:03:42.083Z,-0.85
2018-02-20T23:06:11.331Z,-0.82
2018-02-20T23:08:39.679Z,-0.76
2018-02-20T23:11:07.986Z,-0.80
2018-02-20T23:13:36.331Z,-0.83
2018-02-20T23:16:05.364Z,-0.92
2018-02-20T23:18:33.624Z,-0.99
2018-02-20T23:21:02.668Z,-1.06
2018-02-20T23:23:30.960Z,-1.03
2018-02-20T23:25:59.243Z,-0.99
2018-02-20T23:28:27.518Z,-0.92
2018-02-20T23:30:55.798Z,-1.03
2018-02-20T23:33:24.811Z,-0.90
2018-02-20T23:35:53.096Z,-0.99
2018-02-20T23:38:21.362Z,-1.04
2018-02-20T23:40:49.656Z,-1.04
2018-02-20T23:43:17.921Z,-0.96
2018-02-20T23:45:46.229Z,-1.07
2018-02-20T23:48:15.305Z,-1.06
2018-02-20T23:50:43.769Z,-1.12
2018-02-20T23:53:12.095Z,-1.08
2018-02-20T23:55:40.428Z,-1.12
2018-02-20T23:58:09.460Z,-1.20
